createdAt,value
2018-01-27T00:01:53.654Z,30.80
2018-01-27T00:04:20.571Z,37.10
2018-01-27T00:06:46.772Z,28.30
2018-01-27T00:09:13.033Z,26.67
2018-01-27T00:11:42.021Z,30.57
2018-01-27T00:14:08.977Z,26.80
2018-01-27T00:16:35.126Z,20.80
2018-01-27T00:19:02.069Z,28.93
2018-01-27T00:21:28.254Z,27.20
2018-01-27T00:23:54.400Z,31.10
2018-01-27T00:26:20.559Z,29.33
2018-01-27T00:28:46.756Z,27.70
2018-01-27T00:31:12.941Z,27.10
2018-01-27T00:33:39.110Z,32.73
2018-01-27T00:36:05.291Z,27.17
2018-01-27T00:38:31.486Z,25.60
2018-01-27T00:40:58.396Z,27.57
2018-01-27T00:43:24.658Z,32.77
2018-01-27T00:45:51.579Z,29.47
2018-01-27T00:48:17.695Z,26.90
2018-01-27T00:50:43.923Z,30.50
2018-01-27T00:53:10.834Z,23.13
2018-01-27T00:55:37.003Z,22.50
2018-01-27T00:58:03.270Z,25.30
2018-01-27T01:00:29.506Z,22.70
2018-01-27T01:02:55.700Z,26.30
2018-01-27T01:05:22.627Z,25.90
2018-01-27T01:07:49.586Z,24.80
2018-01-27T01:10:16.507Z,26.83
2018-01-27T01:12:42.723Z,25.80
2018-01-27T01:15:08.886Z,25.13
2018-01-27T01:17:35.866Z,26.60
2018-01-27T01:20:02.094Z,28.07
2018-01-27T01:22:28.230Z,26.13
2018-01-27T01:24:54.469Z,28.83
2018-01-27T01:27:20.666Z,27.00
2018-01-27T01:29:46.848Z,25.37
2018-01-27T01:32:13.055Z,25.60
2018-01-27T01:34:39.249Z,27.27
2018-01-27T01:37:05.405Z,25.57
2018-01-27T01:39:31.602Z,25.17
2018-01-27T01:41:57.790Z,31.00
2018-01-27T01:44:25.978Z,26.87
2018-01-27T01:46:52.934Z,29.33
2018-01-27T01:49:22.930Z,25.07
2018-01-27T01:51:49.173Z,25.20
2018-01-27T01:54:16.102Z,27.17
2018-01-27T01:56:42.310Z,29.90
2018-01-27T01:59:08.495Z,25.10
2018-01-27T02:01:34.720Z,23.67
2018-01-27T02:04:00.873Z,28.90
2018-01-27T02:06:27.143Z,27.60
2018-01-27T02:08:53.435Z,27.60
2018-01-27T02:11:19.686Z,28.93
2018-01-27T02:13:45.874Z,29.33
2018-01-27T02:16:12.113Z,31.07
2018-01-27T02:18:38.326Z,31.80
2018-01-27T02:21:04.536Z,26.90
2018-01-27T02:23:31.454Z,25.53
2018-01-27T02:25:58.375Z,30.30
2018-01-27T02:28:24.559Z,28.30
2018-01-27T02:30:51.499Z,25.93
2018-01-27T02:33:18.459Z,25.57
2018-01-27T02:35:44.675Z,28.23
2018-01-27T02:38:11.615Z,24.03
2018-01-27T02:40:38.487Z,34.50
2018-01-27T02:43:04.723Z,31.30
2018-01-27T02:45:30.899Z,27.57
2018-01-27T02:47:57.088Z,29.47
2018-01-27T02:50:23.313Z,30.07
2018-01-27T02:52:49.510Z,26.23
2018-01-27T02:55:15.685Z,24.17
2018-01-27T02:57:41.873Z,32.53
2018-01-27T03:00:08.125Z,32.63
2018-01-27T03:02:34.322Z,26.50
2018-01-27T03:05:00.513Z,34.67
2018-01-27T03:07:26.720Z,30.33
2018-01-27T03:09:52.930Z,33.10
2018-01-27T03:12:19.182Z,28.27
2018-01-27T03:14:45.434Z,29.70
2018-01-27T03:17:12.303Z,26.10
2018-01-27T03:19:38.491Z,28.50
2018-01-27T03:22:04.720Z,30.53
2018-01-27T03:24:31.651Z,33.10
2018-01-27T03:26:57.787Z,24.90
2018-01-27T03:29:23.979Z,24.73
2018-01-27T03:31:50.128Z,23.27
2018-01-27T03:34:16.306Z,26.70
2018-01-27T03:36:42.510Z,24.10
2018-01-27T03:39:09.460Z,26.43
2018-01-27T03:41:35.698Z,19.83
2018-01-27T03:44:02.657Z,25.63
2018-01-27T03:46:29.524Z,20.33
2018-01-27T03:48:55.680Z,25.10
2018-01-27T03:51:21.890Z,25.03
2018-01-27T03:53:48.113Z,22.43
2018-01-27T03:56:14.294Z,27.90
2018-01-27T03:58:41.269Z,24.27
2018-01-27T04:01:07.438Z,24.77
2018-01-27T04:03:33.645Z,23.80
2018-01-27T04:05:59.852Z,24.90
2018-01-27T04:08:26.075Z,25.77
2018-01-27T04:10:52.270Z,24.60
2018-01-27T04:13:18.458Z,23.40
2018-01-27T04:15:44.642Z,24.40
2018-01-27T04:18:11.594Z,23.13
2018-01-27T04:20:38.518Z,28.43
2018-01-27T04:23:04.736Z,25.17
2018-01-27T04:25:30.856Z,24.03
2018-01-27T04:27:57.053Z,30.87
2018-01-27T04:30:23.257Z,25.90
2018-01-27T04:32:49.470Z,22.40
2018-01-27T04:35:16.458Z,22.00
2018-01-27T04:37:42.620Z,23.10
2018-01-27T04:40:08.821Z,23.57
2018-01-27T04:42:34.992Z,24.17
2018-01-27T04:45:01.168Z,22.80
2018-01-27T04:47:27.394Z,19.90
2018-01-27T04:49:53.560Z,21.50
2018-01-27T04:52:19.731Z,28.20
2018-01-27T04:54:45.900Z,22.33
2018-01-27T04:57:12.077Z,22.00
2018-01-27T04:59:38.218Z,21.57
2018-01-27T05:02:04.342Z,24.57
2018-01-27T05:04:30.503Z,22.77
2018-01-27T05:06:56.660Z,19.63
2018-01-27T05:09:23.606Z,20.00
2018-01-27T05:11:50.581Z,20.60
2018-01-27T05:14:16.811Z,20.80
2018-01-27T05:16:43.795Z,21.27
2018-01-27T05:19:10.956Z,23.70
2018-01-27T05:21:37.499Z,20.37
2018-01-27T05:24:03.958Z,18.00
2018-01-27T05:26:30.358Z,20.37
2018-01-27T05:28:56.840Z,26.93
2018-01-27T05:31:23.219Z,20.63
2018-01-27T05:33:49.699Z,24.50
2018-01-27T05:36:16.064Z,21.27
2018-01-27T05:38:42.597Z,19.60
2018-01-27T05:41:08.996Z,21.33
2018-01-27T05:43:35.346Z,16.27
2018-01-27T05:57:35.881Z,21.97
2018-01-27T06:00:09.240Z,19.10
2018-01-27T06:05:42.423Z,20.73
2018-01-27T06:28:50.671Z,21.20
2018-01-27T06:34:11.685Z,20.93
2018-01-27T06:39:40.166Z,20.50
2018-01-27T06:45:15.630Z,24.50
2018-01-27T06:47:41.889Z,24.40
2018-01-27T06:50:09.641Z,24.87
2018-01-27T06:52:36.130Z,30.43
2018-01-27T06:55:02.568Z,21.30
2018-01-27T06:57:28.812Z,25.37
2018-01-27T06:59:55.021Z,20.90
2018-01-27T07:02:21.183Z,25.97
2018-01-27T07:04:47.338Z,22.30
2018-01-27T07:07:14.227Z,24.37
2018-01-27T07:09:40.373Z,23.30
2018-01-27T07:12:06.596Z,22.60
2018-01-27T07:14:32.784Z,22.47
2018-01-27T07:16:58.940Z,21.83
2018-01-27T07:19:25.117Z,28.23
2018-01-27T07:21:52.038Z,22.53
2018-01-27T07:24:18.226Z,24.57
2018-01-27T07:26:44.421Z,24.13
2018-01-27T07:29:11.332Z,23.40
2018-01-27T07:31:38.278Z,26.43
2018-01-27T07:34:05.263Z,23.87
2018-01-27T07:36:32.171Z,24.77
2018-01-27T07:38:58.416Z,27.53
2018-01-27T07:41:25.350Z,21.37
2018-01-27T07:43:51.588Z,19.10
2018-01-27T07:46:18.538Z,25.40
2018-01-27T07:48:45.532Z,21.00
2018-01-27T07:51:11.775Z,30.83
2018-01-27T07:53:39.959Z,20.60
2018-01-27T07:56:06.934Z,20.43
2018-01-27T07:58:33.842Z,21.13
2018-01-27T08:01:00.030Z,22.70
2018-01-27T08:03:26.262Z,17.77
2018-01-27T08:05:52.521Z,22.53
2018-01-27T08:08:18.678Z,20.03
2018-01-27T08:10:44.934Z,22.13
2018-01-27T08:13:11.126Z,19.70
2018-01-27T08:15:37.295Z,17.63
2018-01-27T08:18:03.447Z,21.90
2018-01-27T08:20:29.686Z,19.17
2018-01-27T08:23:02.831Z,15.90
2018-01-27T08:25:29.806Z,18.47
2018-01-27T08:27:55.994Z,17.53
2018-01-27T08:30:22.961Z,19.73
2018-01-27T08:32:49.096Z,18.60
2018-01-27T08:35:17.045Z,20.83
2018-01-27T08:37:45.287Z,19.40
2018-01-27T08:40:13.549Z,23.60
2018-01-27T08:42:40.371Z,25.53
2018-01-27T08:45:06.705Z,31.80
2018-01-27T08:47:32.944Z,30.27
2018-01-27T08:49:59.177Z,29.40
2018-01-27T08:52:25.341Z,26.30
2018-01-27T08:54:52.315Z,29.53
2018-01-27T08:57:22.076Z,26.10
2018-01-27T08:59:48.299Z,23.27
2018-01-27T09:02:14.458Z,20.47
2018-01-27T09:04:42.377Z,23.57
2018-01-27T09:07:08.514Z,22.47
2018-01-27T09:09:34.731Z,27.33
2018-01-27T09:12:00.966Z,23.20
2018-01-27T09:14:27.186Z,21.43
2018-01-27T09:16:53.480Z,22.37
2018-01-27T09:19:20.419Z,22.13
2018-01-27T09:21:47.353Z,27.23
2018-01-27T09:24:14.300Z,19.97
2018-01-27T09:26:41.293Z,23.57
2018-01-27T09:29:07.574Z,22.90
2018-01-27T09:31:34.502Z,22.87
2018-01-27T09:34:00.696Z,25.63
2018-01-27T09:36:26.888Z,24.63
2018-01-27T09:38:53.884Z,27.13
2018-01-27T09:41:20.008Z,23.47
2018-01-27T09:43:46.282Z,22.93
2018-01-27T09:46:13.907Z,20.77
2018-01-27T09:48:40.120Z,22.83
2018-01-27T09:51:06.325Z,26.27
2018-01-27T09:53:39.604Z,21.70
2018-01-27T09:56:05.849Z,25.03
2018-01-27T09:58:32.011Z,21.50
2018-01-27T10:00:58.205Z,25.80
2018-01-27T10:03:24.387Z,24.17
2018-01-27T10:05:50.514Z,21.90
2018-01-27T10:08:17.499Z,21.77
2018-01-27T10:10:43.658Z,21.67
2018-01-27T10:13:09.772Z,21.13
2018-01-27T10:15:35.979Z,21.40
2018-01-27T10:18:02.170Z,20.70
2018-01-27T10:20:28.345Z,23.03
2018-01-27T10:22:54.590Z,18.27
2018-01-27T10:25:20.798Z,20.03
2018-01-27T10:27:47.042Z,17.77
2018-01-27T10:30:13.286Z,20.40
2018-01-27T10:32:39.451Z,18.03
2018-01-27T10:35:06.455Z,19.70
2018-01-27T10:37:32.646Z,16.80
2018-01-27T10:39:58.898Z,14.07
2018-01-27T10:42:25.118Z,14.43
2018-01-27T10:44:53.274Z,13.77
2018-01-27T10:47:19.433Z,23.27
2018-01-27T10:49:45.653Z,38.83
2018-01-27T10:52:11.898Z,16.97
2018-01-27T10:54:38.089Z,15.37
2018-01-27T10:57:04.280Z,17.60
2018-01-27T10:59:31.214Z,17.90
2018-01-27T11:01:57.402Z,17.00
2018-01-27T11:04:23.576Z,17.97
2018-01-27T11:06:50.488Z,21.00
2018-01-27T11:09:16.697Z,18.50
2018-01-27T11:11:42.963Z,15.80
2018-01-27T11:14:09.271Z,15.10
2018-01-27T11:16:39.438Z,15.03
2018-01-27T11:19:06.352Z,12.00
2018-01-27T11:21:32.636Z,16.20
2018-01-27T11:23:58.878Z,16.47
2018-01-27T11:26:25.097Z,14.37
2018-01-27T11:28:51.315Z,15.53
2018-01-27T11:31:19.294Z,11.13
2018-01-27T11:33:45.495Z,15.30
2018-01-27T11:36:12.438Z,15.27
2018-01-27T11:38:39.337Z,20.20
2018-01-27T11:41:05.527Z,21.83
2018-01-27T11:43:32.461Z,18.20
2018-01-27T11:45:59.484Z,15.40
2018-01-27T11:48:25.720Z,14.70
2018-01-27T11:50:51.921Z,15.23
2018-01-27T11:53:18.153Z,21.10
2018-01-27T11:55:44.413Z,16.20
2018-01-27T11:58:11.473Z,14.50
2018-01-27T12:00:39.474Z,13.47
2018-01-27T12:03:05.653Z,12.07
2018-01-27T12:05:31.841Z,13.97
2018-01-27T12:07:58.044Z,15.90
2018-01-27T12:10:24.220Z,10.97
2018-01-27T12:12:50.465Z,11.83
2018-01-27T12:15:17.429Z,10.20
2018-01-27T12:17:43.680Z,14.43
2018-01-27T12:20:09.922Z,11.37
2018-01-27T12:22:36.154Z,14.23
2018-01-27T12:25:03.084Z,12.10
2018-01-27T12:27:29.314Z,12.37
2018-01-27T12:29:55.534Z,14.20
2018-01-27T12:32:21.700Z,9.50
2018-01-27T12:34:47.945Z,13.80
2018-01-27T12:37:14.133Z,12.80
2018-01-27T12:39:40.337Z,12.87
2018-01-27T12:42:06.522Z,11.50
2018-01-27T12:44:32.722Z,9.37
2018-01-27T12:46:58.897Z,11.27
2018-01-27T12:49:25.812Z,12.40
2018-01-27T12:51:51.970Z,13.60
2018-01-27T12:54:18.891Z,10.83
2018-01-27T12:56:45.857Z,12.63
2018-01-27T12:59:13.792Z,11.07
2018-01-27T13:01:39.961Z,14.07
2018-01-27T13:04:06.899Z,14.80
2018-01-27T13:06:33.810Z,12.47
2018-01-27T13:09:00.025Z,12.13
2018-01-27T13:11:26.251Z,9.63
2018-01-27T13:13:52.465Z,12.30
2018-01-27T13:16:18.718Z,11.53
2018-01-27T13:18:44.926Z,15.10
2018-01-27T13:21:11.161Z,12.87
2018-01-27T13:23:37.398Z,13.70
2018-01-27T13:26:03.645Z,12.90
2018-01-27T13:28:29.795Z,13.93
2018-01-27T13:30:56.714Z,13.80
2018-01-27T13:33:23.686Z,14.63
2018-01-27T13:35:50.680Z,15.90
2018-01-27T13:38:16.916Z,12.37
2018-01-27T13:40:43.103Z,14.63
2018-01-27T13:43:10.062Z,14.37
2018-01-27T13:45:36.312Z,14.80
2018-01-27T13:48:02.597Z,14.07
2018-01-27T13:50:29.506Z,15.00
2018-01-27T13:52:55.713Z,14.73
2018-01-27T13:55:21.960Z,13.87
2018-01-27T13:57:48.114Z,14.33
2018-01-27T14:00:14.366Z,14.73
2018-01-27T14:02:40.612Z,12.43
2018-01-27T14:05:06.764Z,15.40
2018-01-27T14:07:32.920Z,11.70
2018-01-27T14:10:00.922Z,9.83
2018-01-27T14:12:27.123Z,13.50
2018-01-27T14:14:53.292Z,13.97
2018-01-27T14:17:20.962Z,14.13
2018-01-27T14:19:47.130Z,13.73
2018-01-27T14:22:13.368Z,11.63
2018-01-27T14:24:39.573Z,13.23
2018-01-27T14:27:05.776Z,15.00
2018-01-27T14:29:31.944Z,13.60
2018-01-27T14:31:58.175Z,10.77
2018-01-27T14:34:24.340Z,11.03
2018-01-27T14:36:50.468Z,11.83
2018-01-27T14:39:16.703Z,14.47
2018-01-27T14:41:42.930Z,10.40
2018-01-27T14:44:09.140Z,11.03
2018-01-27T14:46:35.318Z,12.17
2018-01-27T14:49:01.570Z,14.83
2018-01-27T14:51:28.532Z,14.33
2018-01-27T14:53:55.462Z,12.37
2018-01-27T14:56:22.465Z,13.60
2018-01-27T14:58:48.596Z,11.87
2018-01-27T15:01:14.762Z,11.87
2018-01-27T15:03:41.727Z,15.50
2018-01-27T15:06:08.657Z,12.17
2018-01-27T15:08:35.574Z,14.27
2018-01-27T15:11:01.796Z,22.83
2018-01-27T15:13:27.979Z,14.87
2018-01-27T15:15:54.128Z,17.52
2018-01-27T15:18:20.332Z,20.13
2018-01-27T15:20:46.565Z,14.20
2018-01-27T15:23:12.785Z,15.17
2018-01-27T15:25:39.671Z,15.30
2018-01-27T15:28:05.877Z,16.80
2018-01-27T15:30:32.059Z,16.87
2018-01-27T15:32:58.291Z,17.10
2018-01-27T15:35:25.915Z,16.00
2018-01-27T15:37:53.195Z,13.50
2018-01-27T15:40:20.692Z,23.13
2018-01-27T15:42:55.379Z,24.40
2018-01-27T15:45:21.602Z,22.57
2018-01-27T15:47:47.781Z,21.87
2018-01-27T15:50:14.010Z,26.57
2018-01-27T15:52:40.216Z,32.73
2018-01-27T15:55:06.373Z,36.63
2018-01-27T15:57:32.497Z,48.40
2018-01-27T15:59:58.675Z,45.37
2018-01-27T16:02:24.891Z,43.13
2018-01-27T16:04:51.031Z,36.53
2018-01-27T16:07:17.226Z,27.27
2018-01-27T16:09:43.439Z,29.83
2018-01-27T16:12:09.569Z,44.53
2018-01-27T16:14:36.122Z,33.73
2018-01-27T16:17:02.334Z,46.60
2018-01-27T16:19:28.517Z,62.43
2018-01-27T16:21:55.431Z,57.43
2018-01-27T16:24:21.671Z,36.97
2018-01-27T16:26:47.803Z,29.50
2018-01-27T16:29:13.960Z,30.80
2018-01-27T16:31:40.214Z,27.20
2018-01-27T16:34:06.377Z,26.90
2018-01-27T16:36:32.619Z,39.10
2018-01-27T16:38:59.521Z,55.53
2018-01-27T16:41:25.721Z,43.33
2018-01-27T16:43:51.909Z,72.57
2018-01-27T16:46:18.084Z,43.07
2018-01-27T16:48:44.390Z,74.20
2018-01-27T16:51:10.613Z,62.80
2018-01-27T16:53:37.508Z,46.00
2018-01-27T16:56:04.819Z,41.87
2018-01-27T16:58:31.017Z,38.83
2018-01-27T17:00:57.211Z,58.00
2018-01-27T17:03:23.418Z,64.00
2018-01-27T17:05:49.607Z,33.27
2018-01-27T17:08:15.772Z,44.57
2018-01-27T17:10:41.931Z,32.20
2018-01-27T17:13:08.100Z,51.87
2018-01-27T17:15:34.982Z,44.73
2018-01-27T17:18:01.239Z,42.33
2018-01-27T17:20:27.456Z,46.33
2018-01-27T17:22:53.673Z,71.03
2018-01-27T17:25:19.839Z,42.63
2018-01-27T17:27:46.033Z,42.43
2018-01-27T17:30:12.256Z,64.17
2018-01-27T17:32:38.452Z,44.17
2018-01-27T17:35:04.630Z,35.13
2018-01-27T17:37:30.842Z,27.43
2018-01-27T17:39:57.036Z,25.70
2018-01-27T17:42:23.982Z,29.57
2018-01-27T17:44:50.190Z,29.20
2018-01-27T17:47:17.155Z,28.03
2018-01-27T17:49:43.420Z,28.47
2018-01-27T17:52:09.621Z,27.20
2018-01-27T17:54:35.826Z,29.47
2018-01-27T17:57:02.800Z,28.17
2018-01-27T17:59:28.985Z,25.50
2018-01-27T18:01:55.201Z,31.30
2018-01-27T18:04:21.360Z,29.00
2018-01-27T18:06:48.363Z,35.33
2018-01-27T18:09:14.522Z,32.57
2018-01-27T18:11:41.437Z,30.00
2018-01-27T18:14:07.631Z,33.30
2018-01-27T18:16:33.853Z,30.10
2018-01-27T18:19:00.028Z,27.60
2018-01-27T18:21:26.982Z,30.40
2018-01-27T18:23:53.140Z,34.13
2018-01-27T18:26:20.070Z,29.17
2018-01-27T18:28:46.941Z,28.10
2018-01-27T18:31:13.106Z,30.23
2018-01-27T18:33:39.405Z,31.80
2018-01-27T18:36:05.606Z,31.90
2018-01-27T18:38:32.578Z,27.30
2018-01-27T18:40:58.782Z,27.33
2018-01-27T18:43:25.709Z,28.97
2018-01-27T18:45:52.668Z,25.20
2018-01-27T18:48:19.665Z,28.90
2018-01-27T18:50:45.891Z,26.93
2018-01-27T18:53:12.134Z,27.73
2018-01-27T18:55:39.084Z,25.77
2018-01-27T18:58:06.027Z,28.53
2018-01-27T19:00:32.205Z,30.20
2018-01-27T19:02:58.498Z,30.10
2018-01-27T19:05:24.728Z,29.90
2018-01-27T19:07:51.681Z,25.60
2018-01-27T19:10:18.719Z,25.73
2018-01-27T19:12:45.708Z,28.53
2018-01-27T19:15:11.944Z,27.03
2018-01-27T19:17:38.187Z,25.90
2018-01-27T19:20:04.380Z,31.00
2018-01-27T19:22:30.582Z,29.30
2018-01-27T19:24:57.498Z,31.60
2018-01-27T19:27:23.635Z,30.23
2018-01-27T19:29:49.803Z,31.23
2018-01-27T19:32:16.723Z,23.87
2018-01-27T19:34:43.033Z,22.80
2018-01-27T19:37:10.047Z,27.50
2018-01-27T19:39:36.356Z,27.87
2018-01-27T19:42:02.653Z,23.10
2018-01-27T19:44:28.949Z,22.17
2018-01-27T19:46:55.243Z,27.97
2018-01-27T19:49:21.553Z,23.07
2018-01-27T19:51:48.550Z,24.53
2018-01-27T19:54:14.943Z,25.93
2018-01-27T19:56:42.086Z,24.60
2018-01-27T19:59:13.424Z,24.70
2018-01-27T20:01:40.059Z,22.63
2018-01-27T20:04:06.329Z,22.77
2018-01-27T20:06:32.711Z,22.80
2018-01-27T20:09:18.726Z,26.90
2018-01-27T20:11:47.013Z,18.50
2018-01-27T20:14:14.273Z,15.33
2018-01-27T20:16:44.070Z,19.97
2018-01-27T20:19:10.857Z,20.40
2018-01-27T20:21:44.289Z,23.53
2018-01-27T20:24:10.612Z,26.07
2018-01-27T20:26:37.032Z,21.67
2018-01-27T20:29:04.328Z,25.43
2018-01-27T20:31:31.681Z,28.00
2018-01-27T20:33:58.981Z,25.60
2018-01-27T20:36:25.541Z,27.20
2018-01-27T20:38:52.206Z,28.00
2018-01-27T20:41:20.103Z,27.50
2018-01-27T20:43:46.716Z,27.60
2018-01-27T20:46:13.966Z,32.00
2018-01-27T20:48:40.518Z,51.07
2018-01-27T20:51:07.078Z,73.13
2018-01-27T20:53:33.596Z,78.77
2018-01-27T20:56:00.075Z,72.70
2018-01-27T20:58:26.592Z,85.13
2018-01-27T21:00:53.193Z,102.83
2018-01-27T21:03:20.127Z,68.43
2018-01-27T21:05:46.534Z,51.77
2018-01-27T21:08:13.122Z,49.00
2018-01-27T21:10:39.554Z,41.90
2018-01-27T21:13:06.051Z,39.43
2018-01-27T21:15:32.710Z,38.00
2018-01-27T21:17:59.286Z,34.67
2018-01-27T21:20:25.786Z,42.00
2018-01-27T21:22:52.176Z,54.70
2018-01-27T21:25:18.335Z,52.00
2018-01-27T21:27:45.394Z,47.33
2018-01-27T21:30:11.812Z,50.80
2018-01-27T21:32:39.062Z,45.03
2018-01-27T21:35:06.440Z,50.13
2018-01-27T21:37:32.673Z,59.00
2018-01-27T21:39:58.897Z,47.20
2018-01-27T21:42:25.119Z,41.10
2018-01-27T21:44:51.347Z,48.03
2018-01-27T21:47:17.515Z,46.97
2018-01-27T21:49:44.015Z,46.43
2018-01-27T21:52:10.283Z,50.07
2018-01-27T21:54:37.443Z,53.03
2018-01-27T21:57:03.894Z,46.03
2018-01-27T21:59:30.976Z,56.70
2018-01-27T22:01:57.244Z,48.20
2018-01-27T22:04:23.699Z,47.17
2018-01-27T22:06:49.974Z,50.33
2018-01-27T22:09:16.402Z,70.73
2018-01-27T22:11:42.612Z,88.93
2018-01-27T22:14:09.644Z,67.17
2018-01-27T22:16:36.648Z,62.67
2018-01-27T22:19:02.820Z,76.63
2018-01-27T22:21:29.059Z,98.67
2018-01-27T22:23:55.960Z,64.60
2018-01-27T22:26:22.158Z,75.03
2018-01-27T22:28:48.374Z,69.80
2018-01-27T22:31:14.558Z,49.67
2018-01-27T22:33:40.759Z,80.47
2018-01-27T22:36:06.944Z,56.20
2018-01-27T22:38:33.840Z,59.47
2018-01-27T22:41:00.008Z,58.73
2018-01-27T22:43:26.970Z,62.07
2018-01-27T22:45:53.162Z,60.70
2018-01-27T22:48:20.104Z,57.10
2018-01-27T22:50:46.999Z,58.83
2018-01-27T22:53:13.227Z,56.37
2018-01-27T22:55:39.394Z,53.97
2018-01-27T22:58:06.315Z,48.30
2018-01-27T23:00:32.586Z,51.00
2018-01-27T23:03:06.579Z,52.27
2018-01-27T23:05:33.030Z,73.43
2018-01-27T23:07:59.537Z,54.13
2018-01-27T23:10:26.189Z,55.17
2018-01-27T23:12:53.186Z,62.07
2018-01-27T23:15:19.569Z,59.23
2018-01-27T23:17:45.994Z,63.10
2018-01-27T23:20:12.239Z,66.63
2018-01-27T23:22:38.442Z,59.23
2018-01-27T23:25:04.612Z,58.50
2018-01-27T23:27:31.536Z,55.53
2018-01-27T23:29:57.755Z,57.60
2018-01-27T23:32:23.969Z,60.87
2018-01-27T23:34:50.262Z,61.20
2018-01-27T23:37:16.502Z,60.00
2018-01-27T23:39:42.747Z,55.10
2018-01-27T23:42:08.967Z,52.60
2018-01-27T23:44:35.196Z,56.80
2018-01-27T23:47:01.413Z,56.87
2018-01-27T23:49:27.661Z,61.70
2018-01-27T23:51:53.858Z,61.17
2018-01-27T23:54:20.096Z,61.10
2018-01-27T23:56:46.250Z,62.43
2018-01-27T23:59:12.502Z,58.40
